Latest Weather Observations for Hindmarsh Island

IDS60901

Issued at 2:05 pm CDT Saturday 25 October 2014 (issued every 10 minutes, with the page automatically refreshed every 10 minutes)

About weather observations | Map of Adelaide area stations | Latest observations for Adelaide area | Other Formats
Station Details ID: 023894 Name: HINDMARSH ISLAND AWS Lat: -35.52 Lon: 138.82 Height: 11.0 m
Data from the previous 72 hours. | See also: Recent months at Hindmarsh Island
Date/Time
CDT
Tmp

°C
App
Tmp
°C
Dew
Point
°C
Rel
Hum
%
Delta-T

°C
Wind Press
QNH
hPa
Press
MSL
hPa
Rain
since
9 am
mm
Dir
 
Spd
km/h
Gust
km/h
Spd
kts
Gust
kts
25/02:00pm 18.4 13.6 11.5 64 3.8 S 28 35 15 19 1016.2 - 0.0
25/01:30pm 19.5 15.3 12.5 64 3.9 S 26 32 14 17 1016.4 - 0.0
25/01:00pm 18.4 14.4 11.7 65 3.7 S 24 30 13 16 1016.4 - 0.0
25/12:30pm 19.5 16.5 12.5 64 3.9 S 20 26 11 14 1016.8 - 0.0
25/12:00pm 18.5 15.3 11.8 65 3.7 S 20 26 11 14 1017.0 1016.9 0.0
25/11:30am 18.6 16.1 12.4 67 3.5 S 17 22 9 12 1017.2 - 0.0
25/11:00am 18.3 16.0 11.6 65 3.7 S 15 19 8 10 1017.5 - 0.0
25/10:30am 17.8 15.5 11.6 67 3.4 S 15 20 8 11 1017.7 - 0.0
25/10:00am 17.2 14.8 11.5 69 3.1 S 15 20 8 11 1017.9 - 0.0
25/09:30am 17.1 15.3 12.0 72 2.8 SSE 13 17 7 9 1017.8 - 0.0
25/09:00am 16.2 13.5 11.8 75 2.4 SSE 17 19 9 10 1018.0 1018.1 0.0
25/08:30am 15.6 12.8 11.2 75 2.4 S 17 20 9 11 1018.1 - 0.0
25/08:00am 15.9 14.7 11.7 76 2.3 SSE 9 17 5 9 1017.7 - 0.0
25/07:30am 15.7 13.3 11.3 75 2.4 SSE 15 17 8 9 1017.3 - 0.0
25/07:00am 15.7 14.5 11.7 77 2.2 SSE 9 13 5 7 1017.0 - 0.0
25/06:30am 15.6 13.6 11.6 77 2.2 SSE 13 15 7 8 1016.6 - 0.0
25/06:00am 15.8 13.6 12.2 79 2.0 SSE 15 17 8 9 1016.2 1016.2 0.0
25/05:30am 15.8 14.8 12.2 79 2.0 ESE 9 15 5 8 1015.8 - 0.0
25/05:00am 15.6 14.1 11.8 78 2.1 E 11 17 6 9 1015.6 - 0.0
25/04:30am 15.6 13.8 12.0 79 2.0 E 13 19 7 10 1015.6 - 0.0
25/04:00am 15.6 14.1 12.0 79 2.0 ESE 11 15 6 8 1015.6 - 0.0
25/03:30am 15.6 14.5 12.0 79 2.0 E 9 15 5 8 1015.6 - 0.0
25/03:00am 15.7 14.3 12.3 80 1.9 ESE 11 19 6 10 1015.8 1015.7 0.0
25/02:30am 15.7 14.0 12.3 80 1.9 ESE 13 20 7 11 1015.7 - 0.0
25/02:00am 15.8 13.7 12.5 81 1.8 SE 15 17 8 9 1015.7 - 0.0
25/01:30am 15.8 13.8 12.7 82 1.7 SSE 15 19 8 10 1016.1 - 0.0
25/01:00am 15.7 13.7 12.6 82 1.7 SSE 15 17 8 9 1016.5 - 0.0
25/12:30am 15.9 13.5 12.8 82 1.7 S 17 22 9 12 1016.5 - 0.0
25/12:00am 16.0 13.3 12.9 82 1.7 S 19 22 10 12 1016.5 1016.5 0.0
 
Date/Time
CDT
Tmp

°C
App
Tmp
°C
Dew
Point
°C
Rel
Hum
%
Delta-T

°C
Wind Press
QNH
hPa
Press
MSL
hPa
Rain
since
9 am
mm
Dir
 
Spd
km/h
Gust
km/h
Spd
kts
Gust
kts
24/11:30pm 16.0 13.6 12.6 80 1.9 S 17 24 9 13 1016.8 - 0.0
24/11:00pm 16.1 13.7 12.8 81 1.8 S 17 26 9 14 1016.8 - 0.0
24/10:30pm 16.2 13.9 12.9 81 1.8 S 17 24 9 13 1016.6 - 0.0
24/10:00pm 16.3 14.0 13.0 81 1.8 S 17 22 9 12 1016.6 - 0.0
24/09:30pm 16.5 14.0 13.6 83 1.6 S 19 20 10 11 1016.3 - 0.0
24/09:00pm 16.5 13.8 13.6 83 1.6 S 20 26 11 14 1015.9 1015.9 0.0
24/08:30pm 16.8 13.9 14.1 84 1.5 S 22 30 12 16 1015.4 - 0.0
24/08:00pm 16.8 13.1 13.9 83 1.6 S 26 30 14 16 1015.2 - 0.0
24/07:30pm 17.1 13.9 14.2 83 1.7 SSW 24 28 13 15 1014.9 - 0.0
24/07:00pm 17.4 14.1 14.1 81 1.9 SSW 24 30 13 16 1014.4 - 0.0
24/06:30pm 18.3 15.0 15.0 81 1.9 SSW 26 30 14 16 1013.9 - 0.0
24/06:00pm 19.1 15.3 14.8 76 2.5 SSW 28 35 15 19 1013.9 - 0.0
24/05:30pm 19.5 17.0 15.2 76 2.5 SSW 22 30 12 16 1013.5 - 0.0
24/05:00pm 20.5 17.6 15.1 71 3.2 SSW 24 28 13 15 1013.3 - 0.0
24/04:30pm 21.1 18.1 13.8 63 4.2 S 22 30 12 16 1012.9 - 0.0
24/04:00pm 21.6 18.3 15.0 66 3.9 S 26 32 14 17 1012.9 - 0.0
24/03:30pm 23.0 21.0 14.0 57 5.3 SSE 17 19 9 10 1012.5 - 0.0
24/03:00pm 23.1 21.8 13.8 55 5.4 SSE 13 15 7 8 1012.7 1012.7 0.0
24/02:30pm 22.9 21.4 14.2 58 5.1 SSE 15 17 8 9 1013.2 - 0.0
24/02:00pm 22.4 20.3 15.3 64 4.2 S 20 22 11 12 1013.4 - 0.0
24/01:30pm 22.8 21.0 14.4 59 4.9 S 17 20 9 11 1013.4 - 0.0
24/01:00pm 23.2 21.7 14.2 57 5.3 SSE 15 17 8 9 1013.5 - 0.0
24/12:30pm 21.6 20.0 13.8 61 4.5 SSE 15 17 8 9 1013.6 - 0.0
24/12:00pm 21.6 20.4 14.0 62 4.4 SSE 13 15 7 8 1014.1 1014.1 0.0
24/11:30am 21.8 20.7 14.4 63 4.3 S 13 15 7 8 1014.2 - 0.0
24/11:00am 20.2 18.8 13.4 65 3.9 S 13 15 7 8 1014.5 - 0.0
24/10:30am 20.1 19.3 12.8 63 4.1 S 9 11 5 6 1014.5 - 0.0
24/10:00am 19.4 19.2 13.1 67 3.6 N 6 9 3 5 1014.5 - 0.0
24/09:30am 17.5 16.7 12.8 74 2.6 N 9 11 5 6 1014.3 - 0.0
24/09:00am 15.2 15.0 12.9 86 1.3 N 6 7 3 4 1014.2 1014.3 0.0
24/08:30am 13.7 12.6 11.9 89 1.0 E 9 11 5 6 1014.0 - 0.0
24/08:00am 13.4 12.9 12.1 92 0.7 E 6 9 3 5 1014.1 - 0.0
24/07:30am 12.9 12.4 12.0 94 0.5 SSE 6 9 3 5 1013.9 - 0.0
24/07:00am 11.8 12.0 10.7 93 0.6 CALM 0 0 0 0 1013.4 - 0.0
24/06:30am 11.8 10.8 10.9 94 0.5 N 7 11 4 6 1012.7 - 0.0
24/06:00am 12.0 10.7 11.1 94 0.5 N 9 13 5 7 1012.4 1012.4 0.0
24/05:30am 11.9 10.1 11.0 94 0.5 NNE 11 15 6 8 1011.7 - 0.0
24/05:00am 11.8 9.9 10.5 92 0.7 N 11 17 6 9 1012.1 - 0.0
24/04:30am 11.9 10.0 10.5 91 0.7 N 11 15 6 8 1012.1 - 0.0
24/04:00am 12.8 12.8 11.2 90 0.8 NNE 2 6 1 3 1012.1 - 0.0
24/03:30am 12.8 12.8 11.2 90 0.8 NNW 2 7 1 4 1012.6 - 0.0
24/03:00am 12.9 11.6 11.1 89 0.9 NNW 9 11 5 6 1013.0 1013.1 0.0
24/02:30am 12.9 11.9 11.0 88 1.0 NW 7 9 4 5 1013.0 - 0.0
24/02:00am 13.6 12.8 11.7 88 1.0 W 7 9 4 5 1013.5 - 0.0
24/01:30am 13.5 12.2 11.4 87 1.1 SW 9 13 5 7 1014.1 - 0.0
24/01:00am 13.7 11.4 11.6 87 1.1 SW 15 19 8 10 1014.6 - 0.0
24/12:30am 13.8 11.8 11.5 86 1.2 WSW 13 19 7 10 1015.0 - 0.0
24/12:00am 13.9 11.6 11.6 86 1.2 WSW 15 19 8 10 1015.1 1015.0 0.0
 
Date/Time
CDT
Tmp

°C
App
Tmp
°C
Dew
Point
°C
Rel
Hum
%
Delta-T

°C
Wind Press
QNH
hPa
Press
MSL
hPa
Rain
since
9 am
mm
Dir
 
Spd
km/h
Gust
km/h
Spd
kts
Gust
kts
23/11:30pm 13.8 11.4 11.5 86 1.2 SW 15 19 8 10 1015.2 - 0.0
23/11:00pm 13.8 11.5 11.7 87 1.1 SW 15 19 8 10 1015.4 - 0.0
23/10:30pm 13.6 11.5 11.3 86 1.2 SW 13 17 7 9 1015.2 - 0.0
23/10:00pm 13.6 10.7 11.1 85 1.3 SW 17 19 9 10 1015.6 - 0.0
23/09:30pm 13.7 11.2 11.2 85 1.3 SW 15 19 8 10 1015.7 - 0.0
23/09:00pm 13.9 10.7 11.2 84 1.4 SW 19 20 10 11 1015.7 1015.7 0.0
23/08:30pm 13.9 11.1 11.2 84 1.4 SW 17 20 9 11 1015.5 - 0.0
23/08:00pm 14.0 11.2 11.2 83 1.5 SW 17 20 9 11 1015.4 - 0.0
23/07:30pm 14.5 11.3 11.3 81 1.7 SW 19 24 10 13 1015.3 - 0.0
23/07:00pm 15.0 11.6 11.4 79 1.9 SSW 20 28 11 15 1015.1 - 0.0
23/06:30pm 15.4 12.0 11.4 77 2.1 SW 20 26 11 14 1015.2 - 0.0
23/06:00pm 15.2 11.4 11.2 77 2.1 SSW 22 26 12 14 1015.0 1015.0 0.0
23/05:30pm 15.7 12.4 11.5 76 2.3 SSW 20 24 11 13 1015.0 - 0.0
23/05:00pm 16.2 12.6 12.0 76 2.3 SSW 22 28 12 15 1015.0 - 0.0
23/04:30pm 16.3 12.6 11.5 73 2.6 SSW 22 30 12 16 1014.9 - 0.0
23/04:00pm 16.7 13.3 11.4 71 2.9 SSW 20 26 11 14 1015.1 - 0.0
23/03:30pm 16.6 13.4 11.9 74 2.6 SSW 20 28 11 15 1015.2 - 0.0
23/03:00pm 17.5 14.4 12.2 71 2.9 SSW 20 26 11 14 1015.5 1015.6 0.0
23/02:30pm 16.5 13.3 11.2 71 2.9 SSW 19 24 10 13 1016.0 - 0.0
23/02:00pm 17.3 14.4 12.4 73 2.7 S 19 24 10 13 1016.2 - 0.0
23/01:30pm 17.2 14.9 11.9 71 2.9 SSW 15 24 8 13 1016.5 - 0.0
23/01:00pm 17.1 14.4 11.6 70 3.0 S 17 22 9 12 1016.8 - 0.0
23/12:30pm 16.8 14.5 11.7 72 2.8 S 15 20 8 11 1017.0 - 0.0
23/12:00pm 16.2 13.8 11.4 73 2.6 S 15 19 8 10 1017.6 1017.6 0.0
23/11:30am 15.9 13.2 11.7 76 2.3 S 17 20 9 11 1018.0 - 0.0
23/11:00am 15.4 12.9 11.2 76 2.2 S 15 20 8 11 1018.1 - 0.0
23/10:30am 15.1 12.4 11.7 80 1.8 S 17 22 9 12 1018.4 - 0.0
23/10:00am 14.7 11.5 11.1 79 1.9 S 19 24 10 13 1018.5 - 0.0
23/09:30am 14.7 11.5 11.3 80 1.8 S 19 24 10 13 1018.8 - 0.0
23/09:00am 14.4 11.2 11.2 81 1.7 S 19 24 10 13 1018.8 1018.7 0.0
23/08:30am 14.2 10.8 11.2 82 1.6 S 20 26 11 14 1018.7 - 0.0
23/08:00am 14.1 10.3 11.1 82 1.6 S 22 30 12 16 1018.9 - 0.0
23/07:30am 14.3 10.2 11.5 83 1.5 S 24 33 13 18 1018.8 - 0.0
23/07:00am 14.4 9.6 11.7 84 1.4 SSE 28 33 15 18 1018.6 - 0.0
23/06:30am 14.3 9.5 11.6 84 1.4 S 28 33 15 18 1018.6 - 0.0
23/06:00am 14.6 9.4 11.7 83 1.6 S 30 35 16 19 1018.6 1018.6 0.0
23/05:30am 14.6 9.8 11.7 83 1.6 S 28 35 15 19 1018.5 - 0.0
23/05:00am 14.7 9.6 12.0 84 1.5 SSE 30 37 16 20 1018.1 - 0.0
23/04:30am 14.8 9.1 11.8 82 1.6 S 33 39 18 21 1018.3 - 0.0
23/04:00am 15.0 9.5 12.0 82 1.6 S 32 37 17 20 1018.6 - 0.0
23/03:30am 14.9 9.8 12.0 83 1.6 S 30 35 16 19 1018.5 - 0.0
23/03:00am 14.9 9.7 11.5 80 1.8 S 30 39 16 21 1018.9 1018.9 0.0
23/02:30am 15.0 10.0 12.3 84 1.5 S 30 35 16 19 1018.9 - 0.0
23/02:00am 15.0 10.3 12.1 83 1.6 S 28 35 15 19 1019.1 - 0.0
23/01:30am 14.9 10.3 12.2 84 1.5 S 28 33 15 18 1019.3 - 0.0
23/01:00am 14.9 10.2 12.0 83 1.6 S 28 35 15 19 1019.7 - 0.0
23/12:30am 15.0 10.8 12.3 84 1.5 S 26 35 14 19 1019.8 - 0.0
23/12:00am 15.0 11.2 12.3 84 1.5 S 24 35 13 19 1020.0 1020.0 0.0
 
Date/Time
CDT
Tmp

°C
App
Tmp
°C
Dew
Point
°C
Rel
Hum
%
Delta-T

°C
Wind Press
QNH
hPa
Press
MSL
hPa
Rain
since
9 am
mm
Dir
 
Spd
km/h
Gust
km/h
Spd
kts
Gust
kts
22/11:30pm 14.8 10.0 11.8 82 1.6 S 28 33 15 18 1020.3 - 0.0
22/11:00pm 15.0 10.8 12.3 84 1.5 S 26 33 14 18 1020.6 - 0.0
22/10:30pm 14.9 10.3 12.2 84 1.5 S 28 35 15 19 1020.8 - 0.0
22/10:00pm 14.8 9.3 11.8 82 1.6 S 32 37 17 20 1020.9 - 0.0
22/09:30pm 15.0 9.6 12.1 83 1.6 S 32 39 17 21 1020.6 - 0.0
22/09:00pm 15.0 9.6 12.3 84 1.5 SSW 32 39 17 21 1020.3 1020.3 0.0
22/08:30pm 15.0 9.4 12.1 83 1.6 S 33 43 18 23 1020.0 - 0.0
22/08:00pm 15.1 9.6 12.4 84 1.5 SSW 33 41 18 22 1019.3 - 0.0
22/07:30pm 15.3 9.8 12.6 84 1.5 S 33 41 18 22 1019.1 - 0.0
22/07:00pm 15.5 10.0 12.4 82 1.7 SSW 33 41 18 22 1018.9 - 0.0
22/06:30pm 15.8 10.0 12.7 82 1.7 S 35 41 19 22 1018.7 - 0.0
22/06:00pm 15.9 10.0 12.5 80 1.9 SSW 35 43 19 23 1018.6 1018.6 0.0
22/05:30pm 16.1 10.7 12.8 81 1.8 SSW 33 43 18 23 1018.6 - 0.0
22/05:00pm 16.1 10.2 12.5 79 2.0 SSW 35 43 19 23 1018.5 - 0.0
22/04:30pm 16.3 10.1 12.8 80 1.9 SSW 37 44 20 24 1018.5 - 0.0
22/04:00pm 16.8 10.7 12.9 78 2.2 SSW 37 44 20 24 1018.6 - 0.0
22/03:30pm 17.5 11.0 13.0 75 2.5 SSW 39 46 21 25 1018.5 - 0.0
22/03:00pm 17.6 11.2 13.1 75 2.5 SSW 39 46 21 25 1018.4 1018.5 0.0
22/02:30pm 18.2 11.3 12.9 71 3.0 SSW 41 48 22 26 1018.4 - 0.0

Latest Capital City Observations: Canberra | Sydney | Melbourne | Brisbane | Adelaide | Perth | Hobart | Darwin

Other Formats:

Comma delimited format used in spreadsheet applications
http://www.bom.gov.au/fwo/IDS60901/IDS60901.94677.axf

JavaScript Object Notation format (JSON) in row-major order
http://www.bom.gov.au/fwo/IDS60901/IDS60901.94677.json